Time;durP1;ratioP1;P1;durP2;ratioP2;P2;SDS_P1;SDS_P2;PMS_P1;PMS_P2;Temp;Humidity;BMP_temperature;BMP_pressure;BME280_temperature;BME280_humidity;BME280_pressure;Samples;Min_cycle;Max_cycle;Signal;HPM_P1;HPM_P2
2022/10/20 00:02:23;;;;;;;12.20;5.13;;;11.20;99.90;;;;;;5114986;28;20450;-70
2022/10/20 00:04:50;;;;;;;10.77;4.57;;;11.20;99.90;;;;;;5114421;28;20931;-70
2022/10/20 00:07:17;;;;;;;5.43;4.30;;;11.10;99.90;;;;;;5113936;28;20465;-71
2022/10/20 00:09:44;;;;;;;6.10;4.60;;;11.20;99.90;;;;;;5114332;28;20931;-70
2022/10/20 00:12:11;;;;;;;6.30;4.93;;;11.10;99.90;;;;;;5114144;28;20451;-71
2022/10/20 00:14:39;;;;;;;6.87;5.40;;;11.00;99.90;;;;;;5113926;28;20450;-70
2022/10/20 00:17:06;;;;;;;5.80;3.53;;;10.90;99.90;;;;;;5113638;28;20447;-70
2022/10/20 00:19:33;;;;;;;6.40;4.60;;;10.90;99.90;;;;;;5114448;28;20492;-70
2022/10/20 00:22:00;;;;;;;7.03;5.20;;;10.90;99.90;;;;;;5113758;28;20439;-68
2022/10/20 00:24:27;;;;;;;7.17;4.73;;;11.00;99.90;;;;;;5113885;28;20447;-69
2022/10/20 00:26:54;;;;;;;7.33;5.63;;;10.90;99.90;;;;;;5113561;28;20444;-70
2022/10/20 00:29:20;;;;;;;5.13;4.60;;;10.90;99.90;;;;;;5113086;28;20456;-70
2022/10/20 00:31:49;;;;;;;7.57;4.23;;;10.90;99.90;;;;;;5114087;28;20462;-70
2022/10/20 00:34:15;;;;;;;6.37;5.07;;;11.10;99.90;;;;;;5113231;28;20447;-71
2022/10/20 00:36:42;;;;;;;6.77;5.10;;;11.00;99.90;;;;;;5113714;28;20449;-70
2022/10/20 00:39:09;;;;;;;7.80;4.77;;;11.00;99.90;;;;;;5112741;28;20476;-70
2022/10/20 00:41:36;;;;;;;8.47;5.03;;;11.00;99.90;;;;;;5113641;28;20444;-70
2022/10/20 00:44:19;;;;;;;5.60;4.57;;;10.80;99.90;;;;;;5112728;28;20455;-69
2022/10/20 00:46:45;;;;;;;7.73;4.57;;;11.10;99.90;;;;;;5107268;28;20799;-70
2022/10/20 00:49:19;;;;;;;7.40;4.70;;;10.90;99.90;;;;;;5112103;28;20509;-71
2022/10/20 00:51:46;;;;;;;7.03;5.20;;;10.80;99.90;;;;;;5113776;28;20452;-70
2022/10/20 00:54:17;;;;;;;7.87;5.30;;;10.80;99.90;;;;;;5113097;28;20436;-70
2022/10/20 00:56:47;;;;;;;7.93;5.53;;;11.00;99.90;;;;;;5112992;28;21143;-71
2022/10/20 00:59:17;;;;;;;12.33;5.50;;;10.90;99.90;;;;;;5112133;28;20479;-70
2022/10/20 01:01:45;;;;;;;10.43;5.77;;;11.10;99.90;;;;;;5113284;28;20442;-71
2022/10/20 01:04:14;;;;;;;8.50;5.30;;;11.30;99.90;;;;;;5112340;28;20936;-70
2022/10/20 01:06:40;;;;;;;11.03;5.37;;;11.30;99.90;;;;;;5112981;28;20469;-70
2022/10/20 01:09:08;;;;;;;8.23;4.90;;;11.30;99.90;;;;;;5111929;28;20806;-70
2022/10/20 01:11:44;;;;;;;7.70;5.10;;;11.10;99.90;;;;;;5112367;28;20953;-70
2022/10/20 01:14:26;;;;;;;5.97;4.70;;;10.80;99.90;;;;;;5112719;28;20485;-70
2022/10/20 01:17:01;;;;;;;8.67;5.57;;;10.70;99.90;;;;;;5113144;28;20451;-71
2022/10/20 01:20:22;;;;;;;5.97;4.50;;;10.80;99.90;;;;;;5113237;28;20470;-69
2022/10/20 01:23:27;;;;;;;5.20;4.27;;;11.10;99.90;;;;;;5080500;28;20436;-70
2022/10/20 01:26:12;;;;;;;5.57;4.87;;;10.90;99.90;;;;;;5110321;28;20448;-70
2022/10/20 01:28:45;;;;;;;8.10;4.90;;;10.90;99.90;;;;;;5112487;28;20930;-70
2022/10/20 01:31:26;;;;;;;5.90;4.67;;;10.90;99.90;;;;;;5098751;28;20466;-70
2022/10/20 01:34:03;;;;;;;7.77;4.80;;;10.80;99.90;;;;;;5112838;28;20439;-70
2022/10/20 01:36:35;;;;;;;5.70;4.33;;;10.80;99.90;;;;;;5112293;28;20462;-69
2022/10/20 01:39:09;;;;;;;6.60;4.27;;;10.60;99.90;;;;;;5111910;28;20465;-70
2022/10/20 01:41:42;;;;;;;6.87;5.00;;;10.60;99.90;;;;;;5105364;28;20455;-70
2022/10/20 01:44:14;;;;;;;7.53;4.20;;;10.70;99.90;;;;;;5098736;28;20445;-70
2022/10/20 01:46:43;;;;;;;8.23;5.03;;;10.60;99.90;;;;;;5112381;28;20460;-70
2022/10/20 01:49:11;;;;;;;8.43;5.20;;;10.50;99.90;;;;;;5100134;28;20474;-70
2022/10/20 01:51:38;;;;;;;9.00;4.63;;;10.50;99.90;;;;;;5112153;28;20449;-70
2022/10/20 01:54:05;;;;;;;7.30;5.10;;;10.50;99.90;;;;;;5111751;28;20940;-70
2022/10/20 01:56:38;;;;;;;8.47;5.90;;;10.60;99.90;;;;;;5111849;28;20777;-70
2022/10/20 01:59:24;;;;;;;8.60;5.40;;;10.70;99.90;;;;;;5111685;28;20446;-72
2022/10/20 02:02:12;;;;;;;7.97;5.47;;;10.90;99.90;;;;;;5111568;28;20466;-70
2022/10/20 02:04:53;;;;;;;10.20;5.87;;;10.80;99.90;;;;;;5112255;28;20526;-70
2022/10/20 02:07:26;;;;;;;8.10;6.20;;;10.90;99.90;;;;;;5111536;28;20442;-72
2022/10/20 02:09:56;;;;;;;6.10;4.57;;;10.90;99.90;;;;;;5110991;28;20805;-70
2022/10/20 02:12:27;;;;;;;9.47;5.03;;;11.00;99.90;;;;;;5112163;28;20443;-70
2022/10/20 02:14:57;;;;;;;7.20;5.40;;;10.80;99.90;;;;;;5111124;28;20926;-71
2022/10/20 02:17:24;;;;;;;9.27;4.70;;;10.70;99.90;;;;;;5110827;28;20460;-69
2022/10/20 02:19:52;;;;;;;7.07;5.57;;;10.60;99.90;;;;;;5112030;28;20507;-70
2022/10/20 02:22:20;;;;;;;7.20;5.17;;;10.60;99.90;;;;;;5110782;28;20550;-70
2022/10/20 02:24:48;;;;;;;6.87;4.87;;;10.70;99.90;;;;;;5111385;28;20437;-69
2022/10/20 02:27:18;;;;;;;6.30;4.50;;;10.60;99.90;;;;;;5110206;28;20450;-70
2022/10/20 02:29:49;;;;;;;7.50;5.97;;;10.80;99.90;;;;;;5111291;28;20456;-71
2022/10/20 02:32:19;;;;;;;11.80;6.27;;;10.90;99.90;;;;;;5110908;28;20465;-71
2022/10/20 02:34:45;;;;;;;7.77;4.90;;;10.90;99.90;;;;;;5110805;28;20443;-69
2022/10/20 02:37:12;;;;;;;8.20;5.37;;;10.90;99.90;;;;;;5107065;28;20755;-70
2022/10/20 02:39:39;;;;;;;6.90;5.10;;;10.90;99.90;;;;;;5111298;28;20482;-71
2022/10/20 02:42:06;;;;;;;9.20;4.93;;;10.90;99.90;;;;;;5110702;28;20448;-70
2022/10/20 02:44:32;;;;;;;7.20;5.00;;;10.90;99.90;;;;;;5111501;28;20456;-70
2022/10/20 02:46:59;;;;;;;11.40;6.30;;;11.00;99.90;;;;;;5110896;28;20459;-70
2022/10/20 02:49:27;;;;;;;9.00;5.40;;;11.00;99.90;;;;;;5111205;28;20483;-70
2022/10/20 02:51:54;;;;;;;9.87;5.80;;;11.00;99.90;;;;;;5111133;28;20444;-70
2022/10/20 02:54:21;;;;;;;7.30;5.70;;;10.80;99.90;;;;;;5110454;28;20459;-70
2022/10/20 02:56:48;;;;;;;8.50;4.57;;;10.60;99.90;;;;;;5111200;28;20445;-70
2022/10/20 02:59:16;;;;;;;5.80;4.27;;;10.60;99.90;;;;;;5110456;28;20458;-70
2022/10/20 03:01:43;;;;;;;6.13;4.23;;;10.60;99.90;;;;;;5110566;28;20944;-69
2022/10/20 03:04:11;;;;;;;9.33;5.90;;;10.70;99.90;;;;;;5110868;28;20442;-69
2022/10/20 03:06:40;;;;;;;13.57;5.13;;;10.60;99.90;;;;;;5110993;28;20551;-69
2022/10/20 03:09:07;;;;;;;8.10;4.70;;;10.60;99.90;;;;;;5110440;28;20973;-70
2022/10/20 03:11:34;;;;;;;10.27;5.77;;;10.60;99.90;;;;;;5110645;28;20936;-70
2022/10/20 03:14:01;;;;;;;10.23;5.90;;;10.60;99.90;;;;;;5110867;28;20455;-70
2022/10/20 03:16:28;;;;;;;8.67;6.30;;;10.80;99.90;;;;;;5110536;28;20464;-70
2022/10/20 03:18:54;;;;;;;8.13;4.77;;;10.90;99.90;;;;;;5111459;28;20451;-70
2022/10/20 03:21:21;;;;;;;9.27;5.03;;;10.90;99.90;;;;;;5110465;28;20570;-69
2022/10/20 03:23:50;;;;;;;8.50;5.40;;;10.70;99.90;;;;;;5111344;28;20522;-70
2022/10/20 03:26:16;;;;;;;8.03;4.83;;;10.70;99.90;;;;;;5096722;28;20808;-69
2022/10/20 03:28:43;;;;;;;10.20;6.20;;;10.70;99.90;;;;;;5114752;28;20455;-70
2022/10/20 03:31:10;;;;;;;6.63;4.63;;;10.60;99.90;;;;;;5114006;28;20439;-70
2022/10/20 03:33:37;;;;;;;16.30;5.57;;;10.60;99.90;;;;;;5114357;28;20451;-70
2022/10/20 03:36:05;;;;;;;8.13;5.57;;;10.60;99.90;;;;;;5114221;28;20450;-70
2022/10/20 03:38:32;;;;;;;8.43;6.37;;;10.60;99.90;;;;;;5114854;28;20511;-69
2022/10/20 03:41:00;;;;;;;6.80;4.93;;;10.80;99.90;;;;;;5114503;28;20485;-69
2022/10/20 03:43:27;;;;;;;10.20;5.80;;;10.80;99.90;;;;;;5114992;28;20799;-69
2022/10/20 03:46:02;;;;;;;8.70;5.63;;;10.80;99.90;;;;;;5114560;28;20456;-70
2022/10/20 03:48:29;;;;;;;9.87;5.00;;;10.90;99.90;;;;;;5114265;28;20639;-69
2022/10/20 03:50:57;;;;;;;10.07;5.40;;;10.90;99.90;;;;;;5114580;28;20459;-68
2022/10/20 03:53:23;;;;;;;8.83;6.20;;;11.00;99.90;;;;;;5114013;28;20455;-70
2022/10/20 03:55:50;;;;;;;10.53;6.70;;;10.90;99.90;;;;;;5114541;28;20450;-70
2022/10/20 03:58:18;;;;;;;10.53;6.33;;;11.30;99.90;;;;;;5112221;28;20431;-70
2022/10/20 04:00:46;;;;;;;11.57;6.13;;;11.10;99.90;;;;;;5104545;28;20523;-71
2022/10/20 04:03:12;;;;;;;9.97;6.00;;;11.10;99.90;;;;;;5113962;28;20471;-70
2022/10/20 04:05:39;;;;;;;6.17;4.63;;;10.90;99.90;;;;;;5114150;28;20447;-69
2022/10/20 04:08:06;;;;;;;9.87;5.67;;;10.70;99.90;;;;;;5113729;28;20447;-70
2022/10/20 04:10:33;;;;;;;7.77;5.60;;;10.80;99.90;;;;;;5114521;28;20458;-69
2022/10/20 04:13:01;;;;;;;8.20;5.23;;;10.90;99.90;;;;;;5113568;28;20961;-70
2022/10/20 04:15:29;;;;;;;8.40;5.50;;;10.80;99.90;;;;;;5113924;28;20454;-70
2022/10/20 04:17:56;;;;;;;8.43;6.40;;;10.90;99.90;;;;;;5114252;28;20448;-71
2022/10/20 04:20:23;;;;;;;11.17;6.80;;;11.10;99.90;;;;;;5113951;28;20992;-71
2022/10/20 04:22:50;;;;;;;7.17;4.77;;;11.00;99.90;;;;;;5113386;28;20452;-70
2022/10/20 04:25:17;;;;;;;9.23;5.47;;;11.00;99.90;;;;;;5111827;28;20893;-69
2022/10/20 04:27:44;;;;;;;10.63;5.60;;;11.00;99.90;;;;;;5114315;28;20452;-70
2022/10/20 04:30:11;;;;;;;9.77;6.17;;;11.10;99.90;;;;;;5113464;28;20440;-69
2022/10/20 04:32:39;;;;;;;15.33;9.50;;;11.00;99.90;;;;;;5113656;28;20467;-71
2022/10/20 04:35:06;;;;;;;13.83;7.03;;;10.90;99.90;;;;;;5113025;28;20444;-69
2022/10/20 04:37:33;;;;;;;6.43;4.47;;;10.80;99.90;;;;;;5114035;28;20462;-71
2022/10/20 04:40:00;;;;;;;8.93;6.10;;;10.90;99.90;;;;;;5111486;28;20472;-68
2022/10/20 04:42:27;;;;;;;9.77;5.50;;;10.90;99.90;;;;;;5113368;28;20450;-70
2022/10/20 04:44:53;;;;;;;10.03;5.83;;;10.90;99.90;;;;;;5114051;28;21193;-71
2022/10/20 04:47:20;;;;;;;8.23;4.80;;;10.80;99.90;;;;;;5113582;28;20787;-71
2022/10/20 04:49:48;;;;;;;7.80;4.93;;;10.80;99.90;;;;;;5113113;28;20490;-71
2022/10/20 04:52:16;;;;;;;10.03;5.83;;;10.80;99.90;;;;;;5113232;28;20458;-71
2022/10/20 04:54:42;;;;;;;7.73;5.10;;;10.80;99.90;;;;;;5114088;28;20947;-71
2022/10/20 04:57:09;;;;;;;8.97;5.40;;;10.90;99.90;;;;;;5113245;28;20458;-72
2022/10/20 04:59:36;;;;;;;9.83;7.20;;;10.90;99.90;;;;;;5113043;28;20514;-71
2022/10/20 05:02:03;;;;;;;7.33;5.70;;;10.90;99.90;;;;;;5113062;28;20487;-71
2022/10/20 05:04:30;;;;;;;7.80;5.43;;;11.00;99.90;;;;;;5113634;28;20451;-71
2022/10/20 05:06:58;;;;;;;8.53;5.20;;;11.00;99.90;;;;;;5113318;28;20477;-68
2022/10/20 05:09:25;;;;;;;6.53;4.40;;;10.90;99.90;;;;;;5113176;28;20459;-71
2022/10/20 05:11:52;;;;;;;9.70;6.37;;;10.90;99.90;;;;;;5113654;28;20457;-71
2022/10/20 05:14:19;;;;;;;7.67;5.53;;;10.90;99.90;;;;;;5112956;28;20458;-72
2022/10/20 05:16:46;;;;;;;12.03;6.13;;;11.10;99.90;;;;;;5113259;28;20454;-71
2022/10/20 05:19:12;;;;;;;10.67;6.20;;;11.10;99.90;;;;;;5112133;28;20467;-71
2022/10/20 05:21:39;;;;;;;9.40;5.33;;;10.90;99.90;;;;;;5112875;28;21008;-71
2022/10/20 05:24:08;;;;;;;8.97;5.60;;;10.90;99.90;;;;;;5112347;28;20458;-71
2022/10/20 05:26:36;;;;;;;9.67;6.27;;;10.90;99.90;;;;;;5113383;28;20469;-71
2022/10/20 05:29:05;;;;;;;8.97;5.63;;;10.90;99.90;;;;;;5112014;28;20462;-72
2022/10/20 05:31:31;;;;;;;11.70;6.40;;;10.80;99.90;;;;;;5112953;28;20451;-71
2022/10/20 05:33:59;;;;;;;8.70;5.33;;;10.80;99.90;;;;;;5112501;28;20483;-71
2022/10/20 05:36:27;;;;;;;7.50;5.30;;;10.80;99.90;;;;;;5113070;28;20458;-72
2022/10/20 05:38:55;;;;;;;11.20;6.53;;;11.00;99.90;;;;;;5112818;28;20470;-72
2022/10/20 05:41:25;;;;;;;8.53;5.83;;;10.90;99.90;;;;;;5112883;28;20474;-71
2022/10/20 05:43:56;;;;;;;7.80;4.93;;;10.90;99.90;;;;;;5112672;28;20954;-72
2022/10/20 05:46:23;;;;;;;10.10;5.50;;;11.00;99.90;;;;;;5113029;28;20454;-72
2022/10/20 05:48:53;;;;;;;13.40;6.43;;;10.90;99.90;;;;;;5112071;28;20480;-72
2022/10/20 05:51:22;;;;;;;9.60;6.63;;;11.20;99.90;;;;;;5111073;28;20452;-71
2022/10/20 05:53:48;;;;;;;8.77;5.90;;;11.30;99.90;;;;;;5112426;28;20462;-71
2022/10/20 05:56:17;;;;;;;10.87;6.60;;;11.40;99.90;;;;;;5112111;28;20444;-71
2022/10/20 05:58:46;;;;;;;8.70;5.60;;;11.30;99.90;;;;;;5111956;28;20462;-71
2022/10/20 06:01:16;;;;;;;8.10;6.20;;;11.10;99.90;;;;;;5111329;28;20484;-71
2022/10/20 06:03:47;;;;;;;10.47;7.00;;;11.00;99.90;;;;;;5112577;28;20440;-71
2022/10/20 06:06:14;;;;;;;11.40;6.50;;;11.00;99.90;;;;;;5111499;28;20446;-71
2022/10/20 06:08:41;;;;;;;11.77;6.37;;;11.00;99.90;;;;;;5112059;28;20443;-71
2022/10/20 06:11:10;;;;;;;9.90;6.47;;;11.10;99.90;;;;;;5111855;28;20447;-71
2022/10/20 06:13:37;;;;;;;7.77;5.27;;;11.10;99.90;;;;;;5112407;28;20450;-71
2022/10/20 06:16:07;;;;;;;9.53;5.80;;;11.10;99.90;;;;;;5111066;28;20471;-72
2022/10/20 06:18:37;;;;;;;9.43;5.17;;;11.10;99.90;;;;;;5111918;28;20875;-71
2022/10/20 06:21:06;;;;;;;8.93;6.10;;;11.10;99.90;;;;;;5111469;28;20518;-72
2022/10/20 06:23:33;;;;;;;9.37;6.50;;;11.20;99.90;;;;;;5112105;28;20461;-71
2022/10/20 06:26:02;;;;;;;11.57;6.07;;;11.10;99.90;;;;;;5111629;28;20496;-71
2022/10/20 06:28:30;;;;;;;16.70;7.40;;;11.10;99.90;;;;;;5111834;28;20538;-71
2022/10/20 06:30:57;;;;;;;10.27;7.10;;;11.20;99.90;;;;;;5110945;28;20914;-70
2022/10/20 06:33:28;;;;;;;7.80;5.70;;;11.40;99.90;;;;;;5112019;28;20455;-72
2022/10/20 06:35:59;;;;;;;16.77;7.50;;;11.50;99.90;;;;;;5111819;28;20440;-71
2022/10/20 06:38:25;;;;;;;10.83;5.83;;;11.50;99.90;;;;;;5111781;28;20500;-71
2022/10/20 06:40:52;;;;;;;10.20;6.30;;;11.40;99.90;;;;;;5112109;28;20494;-72
2022/10/20 06:43:19;;;;;;;10.27;6.37;;;11.50;99.90;;;;;;5111073;28;20530;-71
2022/10/20 06:45:54;;;;;;;11.83;6.73;;;11.50;99.90;;;;;;5098003;28;20444;-71
2022/10/20 06:48:21;;;;;;;8.30;5.77;;;11.60;99.90;;;;;;5110606;28;20471;-71
2022/10/20 06:50:49;;;;;;;11.53;7.20;;;11.50;99.90;;;;;;5111542;28;20452;-71
2022/10/20 06:53:16;;;;;;;9.70;6.10;;;11.50;99.90;;;;;;5111189;28;20759;-71
2022/10/20 06:55:43;;;;;;;11.20;7.20;;;11.60;99.90;;;;;;5111794;28;20463;-71
2022/10/20 06:58:10;;;;;;;10.40;6.30;;;11.60;99.90;;;;;;5111146;28;20450;-71
2022/10/20 07:00:37;;;;;;;12.93;7.67;;;11.50;99.90;;;;;;5111609;28;20448;-72
2022/10/20 07:03:04;;;;;;;8.40;5.93;;;11.60;99.90;;;;;;5115930;28;20451;-71
2022/10/20 07:05:31;;;;;;;10.47;5.70;;;11.60;99.90;;;;;;5118547;28;20539;-72
2022/10/20 07:07:59;;;;;;;10.67;7.20;;;11.60;99.90;;;;;;5117716;28;20952;-72
2022/10/20 07:10:26;;;;;;;13.60;7.10;;;11.70;99.90;;;;;;5118405;28;20492;-71
2022/10/20 07:12:53;;;;;;;10.70;6.47;;;11.80;99.90;;;;;;5119129;28;20436;-71
2022/10/20 07:15:19;;;;;;;9.77;6.80;;;11.90;99.90;;;;;;5120326;28;20447;-71
2022/10/20 07:17:47;;;;;;;10.50;7.50;;;11.90;99.90;;;;;;5121695;28;20844;-71
2022/10/20 07:20:14;;;;;;;14.60;6.40;;;11.90;99.90;;;;;;5117515;28;20459;-72
2022/10/20 07:22:41;;;;;;;12.57;6.90;;;12.10;99.90;;;;;;5117877;28;20479;-71
2022/10/20 07:25:09;;;;;;;13.03;7.37;;;12.20;99.90;;;;;;5117598;28;20934;-72
2022/10/20 07:27:36;;;;;;;8.07;5.20;;;12.30;99.90;;;;;;5118013;28;20450;-71
2022/10/20 07:30:04;;;;;;;7.70;6.07;;;12.30;99.90;;;;;;5117267;28;20447;-71
2022/10/20 07:32:31;;;;;;;13.37;6.63;;;12.40;99.90;;;;;;5118091;27;20451;-71
2022/10/20 07:34:58;;;;;;;9.97;6.37;;;12.70;99.90;;;;;;5117840;28;20616;-70
2022/10/20 07:37:24;;;;;;;9.10;6.93;;;12.60;99.90;;;;;;5118336;28;20447;-71
2022/10/20 07:39:51;;;;;;;10.33;5.57;;;12.50;99.90;;;;;;5117476;28;20443;-71
2022/10/20 07:42:19;;;;;;;10.67;6.07;;;12.60;99.90;;;;;;5117657;28;20875;-71
2022/10/20 07:44:46;;;;;;;11.20;6.03;;;12.70;99.90;;;;;;5118169;28;20452;-71
2022/10/20 07:47:13;;;;;;;8.23;5.30;;;12.80;99.90;;;;;;5117489;28;20455;-71
2022/10/20 07:49:40;;;;;;;9.30;5.23;;;12.80;99.90;;;;;;5117278;28;20551;-73
2022/10/20 07:52:06;;;;;;;11.20;5.93;;;12.80;99.90;;;;;;5117567;28;20452;-71
2022/10/20 07:54:33;;;;;;;6.30;4.80;;;12.90;99.90;;;;;;5117869;28;20458;-71
2022/10/20 07:57:00;;;;;;;9.90;6.00;;;13.20;99.90;;;;;;5117232;28;20443;-71
2022/10/20 07:59:28;;;;;;;8.03;5.27;;;13.20;99.90;;;;;;5117749;28;20448;-71
2022/10/20 08:01:55;;;;;;;7.73;4.80;;;13.20;99.90;;;;;;5117441;28;20481;-72
2022/10/20 08:04:22;;;;;;;8.80;5.10;;;13.20;99.90;;;;;;5118172;28;20797;-71
2022/10/20 08:06:49;;;;;;;8.13;4.60;;;13.30;99.90;;;;;;5117825;28;20546;-71
2022/10/20 08:09:15;;;;;;;9.47;5.33;;;13.30;99.90;;;;;;5116609;28;20944;-71
2022/10/20 08:11:42;;;;;;;6.37;4.87;;;13.40;99.90;;;;;;5117651;28;20459;-71
2022/10/20 08:14:09;;;;;;;6.57;4.47;;;13.50;99.90;;;;;;5114401;28;20450;-71
2022/10/20 08:16:37;;;;;;;6.87;4.40;;;13.60;99.90;;;;;;5114480;28;20466;-71
2022/10/20 08:19:04;;;;;;;9.60;4.70;;;13.50;99.90;;;;;;5113521;28;20451;-71
2022/10/20 08:21:31;;;;;;;6.87;5.10;;;13.60;99.90;;;;;;5114273;28;20482;-72
2022/10/20 08:23:58;;;;;;;7.57;4.73;;;13.60;99.90;;;;;;5113974;28;20440;-71
2022/10/20 08:26:26;;;;;;;11.40;4.73;;;13.60;99.90;;;;;;5114956;28;20448;-72
2022/10/20 08:28:54;;;;;;;5.80;4.13;;;13.70;99.90;;;;;;5114146;28;20538;-71
2022/10/20 08:31:22;;;;;;;7.40;4.37;;;13.70;99.90;;;;;;5113708;28;20447;-72
2022/10/20 08:33:50;;;;;;;11.23;5.33;;;13.70;99.90;;;;;;5114168;28;20464;-71
2022/10/20 08:36:17;;;;;;;8.00;5.00;;;13.80;99.90;;;;;;5113764;28;20448;-71
2022/10/20 08:38:44;;;;;;;6.40;4.20;;;14.00;99.90;;;;;;5113488;28;20452;-72
2022/10/20 08:41:16;;;;;;;6.90;4.83;;;14.00;99.90;;;;;;5113807;28;20450;-72
2022/10/20 08:43:43;;;;;;;7.03;4.77;;;14.00;99.90;;;;;;5114310;28;20522;-72
2022/10/20 08:46:14;;;;;;;6.80;4.70;;;14.10;99.90;;;;;;5113560;28;20454;-69
2022/10/20 08:48:41;;;;;;;5.20;4.00;;;14.20;99.90;;;;;;5113729;28;20464;-70
2022/10/20 08:51:16;;;;;;;4.53;3.53;;;14.30;99.90;;;;;;5113798;28;20440;-70
2022/10/20 08:53:43;;;;;;;5.93;3.90;;;14.50;99.90;;;;;;5113841;28;20952;-71
2022/10/20 08:56:12;;;;;;;4.90;3.70;;;14.60;99.90;;;;;;5113322;28;20452;-70
2022/10/20 08:58:42;;;;;;;7.30;3.60;;;14.70;99.90;;;;;;5113333;28;20448;-70
2022/10/20 09:01:18;;;;;;;5.77;3.63;;;14.70;99.90;;;;;;5113224;28;20497;-70
2022/10/20 09:03:45;;;;;;;7.23;3.90;;;14.80;99.90;;;;;;5101550;28;20450;-70
2022/10/20 09:06:16;;;;;;;6.00;4.17;;;14.90;99.90;;;;;;5113479;28;20517;-70
2022/10/20 09:08:43;;;;;;;4.80;3.27;;;15.00;99.90;;;;;;5113129;28;20447;-71
2022/10/20 09:11:16;;;;;;;6.00;3.70;;;15.20;99.90;;;;;;5113182;28;20784;-70
2022/10/20 09:13:43;;;;;;;5.47;4.30;;;;;;;;;;5113474;28;20939;-70
2022/10/20 09:16:13;;;;;;;6.10;3.60;;;;;;;;;;5112648;28;20487;-71
2022/10/20 09:18:40;;;;;;;3.70;3.20;;;15.30;23.70;;;;;;5113690;28;20797;-72
2022/10/20 09:21:13;;;;;;;3.87;2.70;;;15.60;1.00;;;;;;5112707;28;20448;-71
2022/10/20 09:23:43;;;;;;;7.77;4.23;;;15.60;1.00;;;;;;5113818;28;20446;-71
2022/10/20 09:26:15;;;;;;;5.50;3.00;;;15.70;1.00;;;;;;5113286;28;20444;-71
2022/10/20 09:28:42;;;;;;;5.50;3.30;;;15.70;1.00;;;;;;5117452;28;20450;-71
2022/10/20 09:31:21;;;;;;;5.27;3.43;;;15.80;1.00;;;;;;5115189;28;20781;-70
2022/10/20 09:33:49;;;;;;;5.70;3.83;;;15.70;1.00;;;;;;5113648;28;20432;-70
2022/10/20 09:36:18;;;;;;;7.90;3.43;;;15.90;1.00;;;;;;5112894;28;20508;-70
2022/10/20 09:38:48;;;;;;;5.97;3.23;;;16.10;99.90;;;;;;5113043;28;20455;-71
2022/10/20 09:41:18;;;;;;;7.43;4.20;;;16.10;99.90;;;;;;5120707;28;20452;-70
2022/10/20 09:43:52;;;;;;;3.80;3.30;;;16.00;99.90;;;;;;5124658;28;20503;-71
2022/10/20 09:46:22;;;;;;;4.30;3.13;;;16.10;99.90;;;;;;5125620;28;20452;-71
2022/10/20 09:48:50;;;;;;;4.80;3.30;;;16.10;99.90;;;;;;5128874;28;20528;-72
2022/10/20 09:51:20;;;;;;;4.33;3.40;;;16.20;99.90;;;;;;5131170;28;20858;-71
2022/10/20 09:53:54;;;;;;;4.20;3.27;;;16.20;99.90;;;;;;5130349;28;20458;-71
2022/10/20 09:56:26;;;;;;;5.13;3.57;;;16.10;99.90;;;;;;5126612;28;20435;-71
2022/10/20 09:58:54;;;;;;;5.37;3.80;;;16.20;99.90;;;;;;5122344;28;20440;-71
2022/10/20 10:01:22;;;;;;;4.00;3.60;;;16.10;99.90;;;;;;5119889;28;20439;-71
2022/10/20 10:03:51;;;;;;;4.20;3.80;;;16.20;99.90;;;;;;5120495;28;20452;-71
2022/10/20 10:06:28;;;;;;;5.70;3.20;;;16.50;99.90;;;;;;5120658;28;20471;-71
2022/10/20 10:08:58;;;;;;;4.50;3.10;;;16.50;1.00;;;;;;5121632;28;20463;-71
2022/10/20 10:11:29;;;;;;;5.30;3.27;;;16.50;99.90;;;;;;5120637;28;20725;-72
2022/10/20 10:13:56;;;;;;;4.90;3.50;;;16.60;1.00;;;;;;5120817;28;21029;-72
2022/10/20 10:16:24;;;;;;;5.07;3.77;;;16.60;52.80;;;;;;5120552;28;20456;-73
2022/10/20 10:19:00;;;;;;;6.37;3.70;;;16.70;99.90;;;;;;5119418;28;20448;-72
2022/10/20 10:21:28;;;;;;;4.53;3.20;;;16.60;99.90;;;;;;5120695;28;20439;-69
2022/10/20 10:24:00;;;;;;;4.70;3.47;;;16.60;99.90;;;;;;5122057;28;20452;-71
2022/10/20 10:26:45;;;;;;;3.70;3.10;;;16.60;99.90;;;;;;5105022;28;20443;-71
2022/10/20 10:29:26;;;;;;;4.50;3.73;;;16.70;5.90;;;;;;5122969;28;20440;-71
2022/10/20 10:31:58;;;;;;;6.50;3.90;;;16.80;1.00;;;;;;5127897;28;20434;-72
2022/10/20 10:35:00;;;;;;;5.10;3.80;;;16.90;1.00;;;;;;5130489;28;20509;-72
2022/10/20 10:37:28;;;;;;;3.60;2.73;;;17.00;1.00;;;;;;5084685;28;20938;-68
2022/10/20 10:39:56;;;;;;;3.43;3.10;;;17.20;1.00;;;;;;5125037;28;20448;-72
2022/10/20 10:43:11;;;;;;;4.23;3.00;;;17.10;1.00;;;;;;5123367;28;20586;-72
2022/10/20 10:45:44;;;;;;;4.30;2.87;;;17.30;99.90;;;;;;5035752;28;20444;-72
2022/10/20 10:48:44;;;;;;;4.60;3.00;;;17.20;1.00;;;;;;5112057;28;20478;-72
2022/10/20 10:51:20;;;;;;;3.30;2.90;;;17.30;1.00;;;;;;5115792;28;20474;-72
2022/10/20 10:53:59;;;;;;;2.70;2.50;;;17.40;99.90;;;;;;5117832;28;20466;-71
2022/10/20 10:56:33;;;;;;;4.30;2.87;;;17.30;99.90;;;;;;5117326;28;20440;-71
2022/10/20 10:59:07;;;;;;;4.70;3.00;;;17.20;99.90;;;;;;5116651;28;20496;-72
2022/10/20 11:02:01;;;;;;;5.60;2.97;;;17.10;1.00;;;;;;5117533;28;20483;-72
2022/10/20 11:04:55;;;;;;;3.43;2.40;;;17.20;99.90;;;;;;5118579;28;20443;-71
2022/10/20 11:07:32;;;;;;;3.07;2.67;;;17.10;1.00;;;;;;5084308;28;20468;-71
2022/10/20 11:10:09;;;;;;;3.57;3.27;;;17.30;99.90;;;;;;5117393;28;20438;-71
2022/10/20 11:13:07;;;;;;;2.70;2.37;;;17.20;1.00;;;;;;5119047;28;20439;-71
2022/10/20 11:15:51;;;;;;;4.40;2.90;;;17.30;1.00;;;;;;5105715;28;20486;-71
2022/10/20 11:18:37;;;;;;;3.80;2.90;;;17.30;1.00;;;;;;5116954;28;20452;-72
2022/10/20 11:21:18;;;;;;;4.20;3.00;;;17.30;33.50;;;;;;5116203;28;20440;-72
2022/10/20 11:24:06;;;;;;;6.00;3.20;;;17.30;21.80;;;;;;5116659;28;20472;-72
2022/10/20 11:26:34;;;;;;;3.43;2.57;;;17.40;1.00;;;;;;5116142;28;20474;-72
2022/10/20 11:29:06;;;;;;;3.23;2.40;;;17.40;1.00;;;;;;5114949;28;20444;-72
2022/10/20 11:31:36;;;;;;;4.70;2.63;;;17.40;1.00;;;;;;5115231;28;20969;-72
2022/10/20 11:34:05;;;;;;;3.97;2.67;;;17.50;99.90;;;;;;5114927;28;20546;-72
2022/10/20 11:36:37;;;;;;;4.00;2.60;;;17.60;99.90;;;;;;5115711;28;20528;-72
2022/10/20 11:39:05;;;;;;;3.77;3.17;;;17.60;99.90;;;;;;5112994;28;20440;-71
2022/10/20 11:41:38;;;;;;;5.20;2.23;;;17.50;1.00;;;;;;5114161;28;20444;-72
2022/10/20 11:44:12;;;;;;;4.20;3.17;;;17.60;1.00;;;;;;5113935;28;20471;-72
2022/10/20 11:46:43;;;;;;;2.40;2.20;;;17.40;1.00;;;;;;5114673;28;20447;-72
2022/10/20 11:49:11;;;;;;;3.43;2.80;;;17.40;1.00;;;;;;5113393;28;20471;-72
2022/10/20 11:51:56;;;;;;;3.57;2.80;;;17.70;1.00;;;;;;5116701;28;20448;-71
2022/10/20 11:54:49;;;;;;;5.27;3.07;;;17.60;1.00;;;;;;5117765;28;20466;-72
2022/10/20 11:57:33;;;;;;;3.87;2.87;;;17.50;1.00;;;;;;5116068;28;20471;-72
2022/10/20 12:00:16;;;;;;;4.00;2.90;;;17.40;1.00;;;;;;5115582;28;20440;-71
2022/10/20 12:03:18;;;;;;;3.07;2.73;;;17.50;99.90;;;;;;5121235;27;20469;-72
2022/10/20 12:06:10;;;;;;;4.30;2.67;;;17.50;1.00;;;;;;5115543;28;20454;-72
2022/10/20 12:08:50;;;;;;;4.30;2.37;;;17.50;1.00;;;;;;5114653;28;20448;-72
2022/10/20 12:11:24;;;;;;;2.87;2.50;;;17.40;1.00;;;;;;5114664;28;20749;-72
2022/10/20 12:14:00;;;;;;;3.33;2.53;;;17.40;21.80;;;;;;5115065;28;20447;-72
2022/10/20 12:17:05;;;;;;;5.17;3.47;;;17.30;4.20;;;;;;5114298;28;20486;-71
2022/10/20 12:19:34;;;;;;;3.53;3.23;;;17.40;40.70;;;;;;5114223;28;20450;-72
2022/10/20 12:22:03;;;;;;;4.50;3.07;;;17.50;1.00;;;;;;5114178;28;20455;-72
2022/10/20 12:24:33;;;;;;;3.63;2.47;;;17.50;5.40;;;;;;5115471;28;20456;-71
2022/10/20 12:27:27;;;;;;;3.60;2.80;;;17.50;1.00;;;;;;5114128;28;20463;-72
2022/10/20 12:29:59;;;;;;;4.87;3.23;;;17.50;92.00;;;;;;5103095;28;20447;-72
2022/10/20 12:32:54;;;;;;;3.03;2.60;;;17.60;1.00;;;;;;5114592;28;20455;-72
2022/10/20 12:36:00;;;;;;;3.83;2.50;;;17.60;1.00;;;;;;5114076;28;20510;-71
2022/10/20 12:38:30;;;;;;;3.60;2.80;;;17.50;1.00;;;;;;5113711;28;20446;-71
2022/10/20 12:41:00;;;;;;;3.47;2.77;;;17.50;99.90;;;;;;5113887;28;20436;-69
2022/10/20 12:43:37;;;;;;;3.57;3.27;;;17.60;99.90;;;;;;5113991;28;20479;-71
2022/10/20 12:46:08;;;;;;;4.73;2.93;;;17.50;15.00;;;;;;5113592;28;20452;-71
2022/10/20 12:48:42;;;;;;;3.00;2.43;;;17.40;99.90;;;;;;5113550;28;20837;-71
2022/10/20 12:51:25;;;;;;;3.47;2.70;;;17.50;99.90;;;;;;5101598;28;20448;-73
2022/10/20 12:53:58;;;;;;;5.17;2.70;;;17.50;99.90;;;;;;5113687;28;20440;-72
2022/10/20 12:56:28;;;;;;;6.47;3.43;;;17.60;99.90;;;;;;5114111;28;20801;-71
2022/10/20 12:59:33;;;;;;;3.23;2.67;;;17.60;99.90;;;;;;5113486;28;20803;-72
2022/10/20 13:02:19;;;;;;;213.57;63.37;;;17.50;99.90;;;;;;5112942;28;20514;-72
2022/10/20 13:04:54;;;;;;;80.23;35.27;;;17.40;48.00;;;;;;5113457;28;20495;-72
2022/10/20 13:07:59;;;;;;;10.87;5.80;;;17.30;99.90;;;;;;5113061;28;20992;-72